Time;durP1;ratioP1;P1;durP2;ratioP2;P2;SDS_P1;SDS_P2;PMS_P1;PMS_P2;Temp;Humidity;BMP_temperature;BMP_pressure;BME280_temperature;BME280_humidity;BME280_pressure;Samples;Min_cycle;Max_cycle;Signal;HPM_P1;HPM_P2
2021/12/01 00:20:28;;;;;;;5.40;4.78;;;;;;;;;;4414981;28;20000;-57
2021/12/01 00:22:55;;;;;;;5.57;4.60;;;;;;;;;;4226601;33;20169;-59
2021/12/01 00:25:26;;;;;;;5.97;4.95;;;;;;;;;;4223136;33;20102;-59
2021/12/01 00:27:53;;;;;;;5.37;4.57;;;;;;;;;;4218990;34;20204;-62
2021/12/01 00:30:20;;;;;;;5.60;5.05;;;;;;;;;;4219025;34;20097;-59
2021/12/01 00:32:47;;;;;;;6.20;5.10;;;;;;;;;;4219169;34;20112;-63
2021/12/01 00:35:13;;;;;;;5.40;4.90;;;;;;;;;;4206092;34;20118;-63
2021/12/01 00:37:40;;;;;;;5.22;4.72;;;;;;;;;;4219106;34;20109;-63
2021/12/01 00:40:08;;;;;;;6.07;5.18;;;;;;;;;;4218858;34;20089;-58
2021/12/01 00:42:34;;;;;;;5.85;5.25;;;;;;;;;;4219093;34;20132;-59
2021/12/01 00:45:07;;;;;;;5.82;5.22;;;;;;;;;;4219074;34;20130;-59
2021/12/01 00:47:50;;;;;;;6.57;5.37;;;;;;;;;;4219101;34;20092;-59
2021/12/01 00:50:18;;;;;;;7.43;4.97;;;;;;;;;;4218959;34;20131;-59
2021/12/01 00:52:44;;;;;;;5.30;4.80;;;;;;;;;;4219254;34;20109;-58
2021/12/01 00:55:10;;;;;;;5.97;5.37;;;;;;;;;;4219074;34;20208;-59
2021/12/01 00:57:37;;;;;;;6.22;5.32;;;;;;;;;;4218777;34;20502;-59
2021/12/01 01:00:07;;;;;;;6.12;5.05;;;;;;;;;;4218835;34;20208;-59
2021/12/01 01:02:33;;;;;;;5.97;5.37;;;;;;;;;;4218989;34;20109;-59
2021/12/01 01:04:59;;;;;;;6.15;5.53;;;;;;;;;;4218664;34;20466;-59
2021/12/01 01:07:26;;;;;;;5.97;5.37;;;;;;;;;;4218922;34;20187;-59
2021/12/01 01:09:52;;;;;;;6.20;5.57;;;;;;;;;;4218750;34;20140;-59
2021/12/01 01:18:02;;;;;;;6.78;6.10;;;;;;;;;;4208216;34;20192;-59
2021/12/01 01:20:28;;;;;;;6.30;5.70;;;;;;;;;;4218459;34;20135;-59
2021/12/01 01:22:54;;;;;;;6.78;6.10;;;;;;;;;;4217270;34;20131;-59
2021/12/01 01:25:20;;;;;;;6.15;5.57;;;;;;;;;;4218369;34;20457;-59
2021/12/01 01:27:46;;;;;;;6.05;5.50;;;;;;;;;;4218594;34;20135;-58
2021/12/01 01:30:12;;;;;;;6.53;5.72;;;;;;;;;;4218496;34;20129;-59
2021/12/01 01:32:38;;;;;;;6.57;5.97;;;;;;;;;;4218660;34;20136;-59
2021/12/01 01:35:06;;;;;;;6.57;5.90;;;;;;;;;;4218685;34;20169;-59
2021/12/01 01:37:32;;;;;;;6.47;5.85;;;;;;;;;;4218368;34;20113;-59
2021/12/01 01:39:58;;;;;;;7.45;6.75;;;;;;;;;;4218094;34;20122;-59
2021/12/01 01:42:24;;;;;;;7.22;6.20;;;;;;;;;;4218634;34;20109;-59
2021/12/01 01:44:50;;;;;;;6.82;6.12;;;;;;;;;;4218382;34;20129;-59
2021/12/01 01:47:17;;;;;;;6.90;6.18;;;;;;;;;;4218629;34;20125;-58
2021/12/01 01:49:50;;;;;;;7.72;6.40;;;;;;;;;;4205563;34;20106;-58
2021/12/01 01:52:17;;;;;;;7.53;6.72;;;;;;;;;;4218516;34;20287;-58
2021/12/01 01:54:43;;;;;;;7.72;6.45;;;;;;;;;;4218264;34;20609;-58
2021/12/01 01:57:09;;;;;;;6.25;5.68;;;;;;;;;;4218642;34;20125;-59
2021/12/01 01:59:35;;;;;;;7.15;6.45;;;;;;;;;;4218233;34;20213;-59
2021/12/01 02:02:01;;;;;;;7.68;6.30;;;;;;;;;;4218407;34;20115;-59
2021/12/01 02:04:32;;;;;;;7.12;5.90;;;;;;;;;;4218303;34;20449;-59
2021/12/01 02:07:00;;;;;;;6.20;5.60;;;;;;;;;;4218476;34;20125;-59
2021/12/01 02:09:26;;;;;;;6.72;6.00;;;;;;;;;;4218401;34;20122;-59
2021/12/01 02:11:55;;;;;;;5.95;5.45;;;;;;;;;;4218220;34;20113;-59
2021/12/01 02:14:21;;;;;;;7.90;6.75;;;;;;;;;;4218396;34;20100;-59
2021/12/01 02:16:47;;;;;;;6.70;6.00;;;;;;;;;;4218261;34;20193;-58
2021/12/01 02:19:13;;;;;;;6.55;5.95;;;;;;;;;;4217983;34;20189;-59
2021/12/01 02:21:39;;;;;;;6.70;6.10;;;;;;;;;;4218169;34;20193;-59
2021/12/01 02:24:08;;;;;;;6.93;5.97;;;;;;;;;;4218368;34;20148;-59
2021/12/01 02:26:41;;;;;;;7.47;6.78;;;;;;;;;;4218296;34;20621;-59
2021/12/01 02:29:09;;;;;;;7.32;6.45;;;;;;;;;;4218293;34;20115;-59
2021/12/01 02:31:36;;;;;;;8.95;7.00;;;;;;;;;;4218149;34;20197;-59
2021/12/01 02:34:05;;;;;;;8.55;7.55;;;;;;;;;;4218027;34;20141;-59
2021/12/01 02:36:31;;;;;;;7.28;6.62;;;;;;;;;;4218037;34;20113;-59
2021/12/01 02:38:57;;;;;;;7.57;6.62;;;;;;;;;;4218056;34;20168;-59
2021/12/01 02:41:28;;;;;;;6.90;6.30;;;;;;;;;;4217883;34;20541;-59
2021/12/01 02:43:55;;;;;;;7.85;7.15;;;;;;;;;;4218103;34;20710;-58
2021/12/01 02:46:21;;;;;;;7.82;7.03;;;;;;;;;;4217897;34;20102;-59
2021/12/01 02:48:47;;;;;;;8.25;7.40;;;;;;;;;;4217836;34;20113;-59
2021/12/01 02:51:14;;;;;;;6.80;6.20;;;;;;;;;;4206902;34;20105;-59
2021/12/01 02:53:41;;;;;;;7.43;6.72;;;;;;;;;;4219684;34;20102;-58
2021/12/01 02:56:08;;;;;;;7.00;6.37;;;;;;;;;;4219861;34;20141;-58
2021/12/01 02:58:38;;;;;;;7.00;6.40;;;;;;;;;;4219641;34;20104;-58
2021/12/01 03:01:08;;;;;;;6.95;6.30;;;;;;;;;;4219788;34;20128;-59
2021/12/01 03:03:34;;;;;;;7.05;6.35;;;;;;;;;;4219850;34;20096;-60
2021/12/01 03:06:01;;;;;;;8.00;6.40;;;;;;;;;;4206780;34;20116;-58
2021/12/01 03:08:29;;;;;;;7.07;6.37;;;;;;;;;;4195321;34;20217;-59
2021/12/01 03:10:55;;;;;;;7.45;6.75;;;;;;;;;;4219597;33;20816;-58
2021/12/01 03:13:22;;;;;;;7.75;6.95;;;;;;;;;;4219663;34;20129;-58
2021/12/01 03:15:49;;;;;;;7.30;6.55;;;;;;;;;;4219595;33;20122;-58
2021/12/01 03:18:15;;;;;;;7.32;6.60;;;;;;;;;;4206713;34;20148;-60
2021/12/01 03:20:42;;;;;;;8.70;7.35;;;;;;;;;;4206428;34;20101;-59
2021/12/01 03:23:09;;;;;;;6.97;6.28;;;;;;;;;;4219497;34;20117;-58
2021/12/01 03:25:35;;;;;;;7.95;6.30;;;;;;;;;;4219847;34;20474;-59
2021/12/01 03:28:02;;;;;;;7.03;6.32;;;;;;;;;;4219556;34;20093;-59
2021/12/01 03:30:33;;;;;;;7.10;6.43;;;;;;;;;;4206861;34;20113;-60
2021/12/01 03:33:00;;;;;;;7.78;7.00;;;;;;;;;;4219711;34;20114;-59
2021/12/01 03:35:27;;;;;;;12.52;7.50;;;;;;;;;;4219605;34;20078;-60
2021/12/01 03:37:53;;;;;;;9.23;7.65;;;;;;;;;;4206562;34;20102;-61
2021/12/01 03:40:19;;;;;;;8.13;6.87;;;;;;;;;;4219826;34;20196;-60
2021/12/01 03:42:45;;;;;;;7.93;6.72;;;;;;;;;;4219572;34;20123;-62
2021/12/01 03:45:12;;;;;;;9.65;6.78;;;;;;;;;;4219363;34;20201;-61
2021/12/01 03:47:38;;;;;;;7.68;6.97;;;;;;;;;;4195355;34;20128;-62
2021/12/01 03:50:05;;;;;;;10.85;6.53;;;;;;;;;;4219595;34;20131;-61
2021/12/01 03:52:32;;;;;;;7.97;7.18;;;;;;;;;;4219559;34;20538;-61
2021/12/01 03:54:58;;;;;;;6.93;5.50;;;;;;;;;;4206495;34;20140;-63
2021/12/01 03:57:24;;;;;;;6.65;6.05;;;;;;;;;;4219451;34;20120;-61
2021/12/01 03:59:50;;;;;;;7.80;7.03;;;;;;;;;;4219258;34;20138;-62
2021/12/01 04:02:16;;;;;;;8.05;7.25;;;;;;;;;;4218843;34;20132;-61
2021/12/01 04:04:43;;;;;;;7.20;6.50;;;;;;;;;;4206443;34;20118;-62
2021/12/01 04:07:09;;;;;;;9.50;7.47;;;;;;;;;;4219377;34;20110;-62
2021/12/01 04:09:37;;;;;;;7.18;6.47;;;;;;;;;;4219093;34;20116;-62
2021/12/01 04:12:03;;;;;;;8.05;6.95;;;;;;;;;;4219278;34;20105;-62
2021/12/01 04:14:29;;;;;;;7.70;6.82;;;;;;;;;;4218931;34;20105;-62
2021/12/01 04:16:55;;;;;;;7.97;6.40;;;;;;;;;;4219192;34;20109;-61
2021/12/01 04:19:21;;;;;;;7.45;6.75;;;;;;;;;;4218873;34;20857;-62
2021/12/01 04:21:47;;;;;;;7.78;6.93;;;;;;;;;;4218915;34;20118;-62
2021/12/01 04:24:13;;;;;;;9.38;7.82;;;;;;;;;;4218790;34;20116;-62
2021/12/01 04:26:39;;;;;;;7.90;7.10;;;;;;;;;;4218864;34;20129;-62
2021/12/01 04:29:06;;;;;;;7.60;6.90;;;;;;;;;;4218924;34;20138;-61
2021/12/01 04:31:35;;;;;;;8.25;7.40;;;;;;;;;;4205810;34;20188;-60
2021/12/01 04:34:01;;;;;;;8.90;7.75;;;;;;;;;;4218760;34;20124;-62
2021/12/01 04:36:35;;;;;;;7.50;6.80;;;;;;;;;;4194540;34;20549;-62
2021/12/01 04:39:04;;;;;;;9.38;7.72;;;;;;;;;;4218890;34;20209;-61
2021/12/01 04:41:36;;;;;;;9.95;7.87;;;;;;;;;;4218749;34;20108;-62
2021/12/01 04:44:08;;;;;;;9.32;7.62;;;;;;;;;;4206663;34;20108;-62
2021/12/01 04:46:41;;;;;;;8.63;7.72;;;;;;;;;;4218839;34;20122;-62
2021/12/01 04:49:08;;;;;;;8.15;7.35;;;;;;;;;;4206690;34;20116;-62
2021/12/01 04:51:35;;;;;;;7.95;7.20;;;;;;;;;;4218721;34;20141;-62
2021/12/01 04:54:02;;;;;;;8.77;7.87;;;;;;;;;;4205678;34;20106;-62
2021/12/01 04:56:28;;;;;;;13.32;7.25;;;;;;;;;;4206047;34;20109;-61
2021/12/01 04:58:54;;;;;;;11.02;8.50;;;;;;;;;;4218551;34;20144;-62
2021/12/01 05:01:20;;;;;;;9.32;8.18;;;;;;;;;;4218614;34;20213;-62
2021/12/01 05:03:46;;;;;;;8.35;7.35;;;;;;;;;;4194049;34;20121;-62
2021/12/01 05:06:13;;;;;;;8.07;7.28;;;;;;;;;;4218783;34;20129;-62
2021/12/01 05:08:40;;;;;;;8.23;7.43;;;;;;;;;;4205573;34;20644;-61
2021/12/01 05:11:06;;;;;;;9.93;7.45;;;;;;;;;;4205698;34;20576;-60
2021/12/01 05:13:32;;;;;;;8.63;7.72;;;;;;;;;;4217653;34;20140;-60
2021/12/01 05:15:59;;;;;;;9.07;8.18;;;;;;;;;;4218382;34;20458;-60
2021/12/01 05:18:25;;;;;;;10.52;9.52;;;;;;;;;;4181296;34;20514;-60
2021/12/01 05:20:51;;;;;;;9.82;8.82;;;;;;;;;;4216566;34;20102;-61
2021/12/01 05:23:17;;;;;;;8.20;7.30;;;;;;;;;;4217300;34;20137;-61
2021/12/01 05:25:44;;;;;;;7.43;6.72;;;;;;;;;;4217612;34;20128;-61
2021/12/01 05:28:10;;;;;;;7.28;6.57;;;;;;;;;;4217410;34;20176;-61
2021/12/01 05:30:36;;;;;;;7.25;5.80;;;;;;;;;;4217854;34;20107;-60
2021/12/01 05:33:32;;;;;;;6.30;5.80;;;;;;;;;;3857351;37;20110;-60
2021/12/01 05:35:58;;;;;;;6.85;6.15;;;;;;;;;;4419436;32;20120;-60
2021/12/01 05:38:25;;;;;;;6.47;5.93;;;;;;;;;;4419622;32;20551;-60
2021/12/01 05:40:51;;;;;;;7.10;6.40;;;;;;;;;;4419509;32;20109;-59
2021/12/01 05:43:18;;;;;;;6.25;5.65;;;;;;;;;;4419345;32;20122;-60
2021/12/01 05:45:45;;;;;;;6.37;5.78;;;;;;;;;;4418210;32;20112;-60
2021/12/01 05:48:11;;;;;;;6.32;5.72;;;;;;;;;;4418036;32;20706;-60
2021/12/01 05:50:37;;;;;;;6.12;5.50;;;;;;;;;;4418114;32;20799;-61
2021/12/01 05:53:04;;;;;;;6.35;5.75;;;;;;;;;;4419247;32;20104;-60
2021/12/01 05:55:30;;;;;;;7.80;6.05;;;;;;;;;;4417974;32;20258;-61
2021/12/01 05:57:57;;;;;;;9.73;6.12;;;;;;;;;;4419350;32;20112;-60
2021/12/01 06:00:23;;;;;;;5.87;5.28;;;;;;;;;;4419254;32;20116;-59
2021/12/01 06:02:51;;;;;;;6.55;5.95;;;;;;;;;;4419394;32;20144;-59
2021/12/01 06:05:20;;;;;;;7.07;6.40;;;;;;;;;;4419261;32;20120;-60
2021/12/01 06:07:47;;;;;;;6.12;5.62;;;;;;;;;;4419417;32;20082;-58
2021/12/01 06:10:14;;;;;;;6.30;5.70;;;;;;;;;;4419073;32;20109;-59
2021/12/01 06:12:41;;;;;;;6.03;5.43;;;;;;;;;;4417762;32;20113;-59
2021/12/01 06:15:11;;;;;;;6.20;5.60;;;;;;;;;;4419222;32;20753;-59
2021/12/01 06:17:37;;;;;;;6.72;5.70;;;;;;;;;;4417748;32;20096;-58
2021/12/01 06:20:04;;;;;;;6.37;5.22;;;;;;;;;;4419368;32;20531;-59
2021/12/01 06:22:30;;;;;;;5.97;5.37;;;;;;;;;;4417578;32;20543;-59
2021/12/01 06:24:56;;;;;;;6.90;5.57;;;;;;;;;;4419171;32;20101;-59
2021/12/01 06:27:25;;;;;;;5.95;5.45;;;;;;;;;;4419095;32;20121;-60
2021/12/01 06:29:52;;;;;;;7.12;5.90;;;;;;;;;;4418919;32;20097;-58
2021/12/01 06:32:18;;;;;;;6.30;5.70;;;;;;;;;;4418979;32;20112;-60
2021/12/01 06:34:44;;;;;;;5.82;5.30;;;;;;;;;;4418879;32;20656;-59
2021/12/01 06:37:10;;;;;;;5.78;5.28;;;;;;;;;;4419113;32;20667;-60
2021/12/01 06:39:36;;;;;;;5.82;5.22;;;;;;;;;;4418949;32;20096;-59
2021/12/01 06:42:03;;;;;;;8.50;5.37;;;;;;;;;;4419293;32;20123;-59
2021/12/01 06:44:33;;;;;;;6.32;5.47;;;;;;;;;;4410442;32;20123;-57
2021/12/01 06:47:01;;;;;;;9.43;6.03;;;;;;;;;;4408726;32;20117;-58
2021/12/01 06:49:27;;;;;;;6.18;5.57;;;;;;;;;;4408645;32;20443;-59
2021/12/01 06:51:53;;;;;;;5.90;5.40;;;;;;;;;;4408474;32;20111;-61
2021/12/01 06:54:19;;;;;;;6.20;5.60;;;;;;;;;;4408481;32;20131;-59
2021/12/01 06:56:46;;;;;;;6.62;5.60;;;;;;;;;;4408953;32;20114;-61
2021/12/01 06:59:12;;;;;;;5.95;5.35;;;;;;;;;;4408416;32;20116;-60
2021/12/01 07:01:38;;;;;;;5.43;4.93;;;;;;;;;;4408604;32;20525;-60
2021/12/01 07:04:04;;;;;;;6.30;5.70;;;;;;;;;;4408390;32;20444;-60
2021/12/01 07:06:30;;;;;;;6.80;6.00;;;;;;;;;;4408386;32;20116;-60
2021/12/01 07:08:59;;;;;;;6.32;5.72;;;;;;;;;;4408413;32;20176;-60
2021/12/01 07:11:26;;;;;;;6.90;6.30;;;;;;;;;;4408403;32;20603;-60
2021/12/01 07:13:52;;;;;;;7.00;6.30;;;;;;;;;;4408344;32;20093;-60
2021/12/01 07:16:18;;;;;;;8.10;5.97;;;;;;;;;;4408636;32;20177;-61
2021/12/01 07:18:44;;;;;;;6.47;5.78;;;;;;;;;;4408633;32;20218;-60
2021/12/01 07:21:11;;;;;;;6.82;6.12;;;;;;;;;;4408632;32;20244;-60
2021/12/01 07:23:37;;;;;;;6.90;6.30;;;;;;;;;;4408447;32;20115;-59
2021/12/01 07:26:04;;;;;;;8.45;6.90;;;;;;;;;;4408339;32;20108;-61
2021/12/01 07:28:30;;;;;;;7.15;6.10;;;;;;;;;;4408381;32;20109;-60
2021/12/01 07:30:57;;;;;;;7.85;6.18;;;;;;;;;;4408033;32;20205;-59
2021/12/01 07:33:24;;;;;;;9.50;7.22;;;;;;;;;;4394190;32;20475;-57
2021/12/01 07:35:50;;;;;;;9.82;6.43;;;;;;;;;;4408430;32;20573;-59
2021/12/01 07:38:17;;;;;;;7.53;6.68;;;;;;;;;;4408233;32;20133;-58
2021/12/01 07:40:43;;;;;;;7.57;6.37;;;;;;;;;;4408204;32;20110;-60
2021/12/01 07:43:09;;;;;;;7.97;6.90;;;;;;;;;;4407927;32;20104;-60
2021/12/01 07:45:35;;;;;;;7.93;6.68;;;;;;;;;;4408185;32;20624;-60
2021/12/01 07:48:02;;;;;;;8.35;6.40;;;;;;;;;;4396581;32;20105;-59
2021/12/01 07:50:28;;;;;;;8.57;6.82;;;;;;;;;;4392740;32;20207;-67
2021/12/01 07:52:54;;;;;;;8.38;7.03;;;;;;;;;;4399367;32;20229;-66
2021/12/01 07:55:20;;;;;;;7.68;6.37;;;;;;;;;;4406986;32;20533;-66
2021/12/01 07:57:46;;;;;;;9.00;7.07;;;;;;;;;;4399094;32;20109;-67
2021/12/01 08:00:14;;;;;;;7.35;6.40;;;;;;;;;;4399039;32;20455;-66
2021/12/01 08:02:40;;;;;;;8.43;6.18;;;;;;;;;;4399686;32;20103;-67
2021/12/01 08:05:07;;;;;;;9.18;7.07;;;;;;;;;;4392465;32;20192;-67
2021/12/01 08:07:35;;;;;;;7.25;6.50;;;;;;;;;;4392476;32;20104;-67
2021/12/01 08:10:03;;;;;;;7.25;6.55;;;;;;;;;;4392721;32;20109;-67
2021/12/01 08:12:29;;;;;;;6.18;5.57;;;;;;;;;;4392553;32;20136;-67
2021/12/01 08:14:55;;;;;;;7.62;6.93;;;;;;;;;;4392650;32;20206;-68
2021/12/01 08:17:21;;;;;;;7.70;7.00;;;;;;;;;;4392432;32;20137;-67
2021/12/01 08:19:47;;;;;;;7.97;7.18;;;;;;;;;;4392531;32;20105;-67
2021/12/01 08:22:13;;;;;;;16.17;8.18;;;;;;;;;;4392497;32;20112;-67
2021/12/01 08:24:39;;;;;;;29.35;9.77;;;;;;;;;;4403365;32;20105;-67
2021/12/01 08:27:05;;;;;;;29.67;9.98;;;;;;;;;;4403981;32;20122;-67
2021/12/01 08:29:31;;;;;;;19.70;8.10;;;;;;;;;;4392455;32;20165;-68
2021/12/01 08:31:59;;;;;;;14.95;8.50;;;;;;;;;;4392391;32;20113;-67
2021/12/01 08:34:25;;;;;;;11.23;6.75;;;;;;;;;;4392437;32;20122;-68
2021/12/01 08:36:51;;;;;;;9.55;6.70;;;;;;;;;;4391987;32;20110;-67
2021/12/01 08:39:18;;;;;;;10.50;6.97;;;;;;;;;;4392188;32;20097;-66
2021/12/01 08:41:44;;;;;;;12.18;6.93;;;;;;;;;;4392101;32;20562;-67
2021/12/01 08:44:10;;;;;;;8.45;6.60;;;;;;;;;;4392380;32;20506;-67
2021/12/01 08:46:37;;;;;;;9.77;6.80;;;;;;;;;;4392097;32;20102;-67
2021/12/01 08:49:03;;;;;;;9.45;6.43;;;;;;;;;;4391964;32;20254;-67
2021/12/01 08:51:30;;;;;;;8.40;6.37;;;;;;;;;;4390509;32;20106;-67
2021/12/01 08:53:57;;;;;;;6.57;5.87;;;;;;;;;;4390304;32;20546;-67
2021/12/01 08:56:23;;;;;;;7.10;5.93;;;;;;;;;;4392294;32;20186;-67
2021/12/01 08:58:49;;;;;;;8.75;6.53;;;;;;;;;;4391851;32;20108;-67
2021/12/01 09:01:15;;;;;;;8.32;6.35;;;;;;;;;;4392282;32;20201;-70
2021/12/01 09:03:41;;;;;;;6.93;5.93;;;;;;;;;;4391986;32;20116;-67
2021/12/01 09:06:07;;;;;;;6.10;5.45;;;;;;;;;;4391913;32;20109;-67
2021/12/01 09:08:34;;;;;;;8.13;5.95;;;;;;;;;;4391761;32;20902;-66
2021/12/01 09:11:03;;;;;;;7.12;6.10;;;;;;;;;;4391967;32;20077;-67
2021/12/01 09:13:30;;;;;;;6.72;6.05;;;;;;;;;;4402784;32;20172;-66
2021/12/01 09:15:56;;;;;;;7.37;6.60;;;;;;;;;;4405908;32;20105;-66
2021/12/01 09:18:25;;;;;;;8.13;6.50;;;;;;;;;;4406810;32;20125;-67
2021/12/01 09:20:51;;;;;;;9.95;6.72;;;;;;;;;;4407242;32;20109;-66
2021/12/01 09:23:17;;;;;;;11.10;7.45;;;;;;;;;;4398320;32;20602;-65
2021/12/01 09:25:44;;;;;;;13.50;7.97;;;;;;;;;;4407368;32;20673;-63
2021/12/01 09:28:12;;;;;;;12.30;7.40;;;;;;;;;;4396656;32;20121;-63
2021/12/01 09:30:38;;;;;;;12.10;8.40;;;;;;;;;;4391604;32;20177;-64
2021/12/01 09:33:04;;;;;;;13.75;8.50;;;;;;;;;;4402625;32;20105;-64
2021/12/01 09:35:30;;;;;;;14.82;9.07;;;;;;;;;;4406101;32;20101;-63
2021/12/01 09:37:56;;;;;;;16.20;9.98;;;;;;;;;;4404994;32;20097;-63
2021/12/01 09:40:23;;;;;;;28.62;11.57;;;;;;;;;;4407161;32;20189;-63
2021/12/01 09:42:52;;;;;;;31.62;12.65;;;;;;;;;;4391636;32;20101;-64
2021/12/01 09:45:20;;;;;;;26.80;11.75;;;;;;;;;;4391796;32;20086;-64
2021/12/01 09:47:47;;;;;;;30.17;12.65;;;;;;;;;;4391668;32;20101;-64
2021/12/01 09:50:13;;;;;;;34.38;12.48;;;;;;;;;;4391772;32;20097;-64
2021/12/01 09:52:39;;;;;;;38.95;13.98;;;;;;;;;;4382978;32;20511;-63
2021/12/01 09:55:06;;;;;;;29.87;13.10;;;;;;;;;;4390395;32;20105;-64
2021/12/01 09:57:33;;;;;;;21.80;11.98;;;;;;;;;;4388554;32;20206;-60
2021/12/01 09:59:59;;;;;;;27.05;13.05;;;;;;;;;;4391694;32;20132;-62
2021/12/01 10:02:25;;;;;;;22.13;13.38;;;;;;;;;;4391617;32;20321;-62
2021/12/01 10:04:52;;;;;;;17.50;13.13;;;;;;;;;;4391646;32;20531;-62
2021/12/01 10:07:21;;;;;;;17.60;12.73;;;;;;;;;;4391760;32;20094;-63
2021/12/01 10:09:56;;;;;;;19.35;12.73;;;;;;;;;;4391454;32;20124;-61
2021/12/01 10:12:24;;;;;;;16.25;11.73;;;;;;;;;;4391357;32;20526;-63
2021/12/01 10:14:54;;;;;;;14.20;12.50;;;;;;;;;;4389568;32;20115;-63
2021/12/01 10:17:35;;;;;;;15.27;12.90;;;;;;;;;;4388221;32;20110;-64
2021/12/01 10:20:15;;;;;;;14.20;11.93;;;;;;;;;;4391586;32;20468;-63
2021/12/01 10:23:08;;;;;;;14.05;12.55;;;;;;;;;;4383699;32;20624;-63
2021/12/01 10:25:34;;;;;;;13.88;12.48;;;;;;;;;;4378354;32;20106;-64
2021/12/01 10:28:00;;;;;;;16.62;13.90;;;;;;;;;;4378887;32;20101;-64
2021/12/01 10:30:37;;;;;;;18.33;15.18;;;;;;;;;;4378627;32;20136;-63
2021/12/01 10:33:07;;;;;;;14.07;12.68;;;;;;;;;;4377007;32;20117;-63
2021/12/01 10:35:34;;;;;;;12.75;11.45;;;;;;;;;;4378391;32;20465;-63
2021/12/01 10:38:00;;;;;;;13.80;12.40;;;;;;;;;;4378650;32;20106;-63
2021/12/01 10:40:27;;;;;;;12.40;11.23;;;;;;;;;;4378442;32;20114;-63
2021/12/01 10:43:02;;;;;;;11.93;10.82;;;;;;;;;;4377187;32;20132;-63
2021/12/01 10:45:30;;;;;;;11.35;10.15;;;;;;;;;;4378517;32;20114;-63
2021/12/01 10:47:57;;;;;;;11.57;10.48;;;;;;;;;;4377357;32;20118;-62
2021/12/01 10:50:27;;;;;;;11.05;9.95;;;;;;;;;;4378367;32;20105;-62
2021/12/01 10:53:02;;;;;;;10.52;9.43;;;;;;;;;;4378795;32;20082;-62
2021/12/01 10:55:28;;;;;;;13.00;10.23;;;;;;;;;;4378413;32;20125;-63
2021/12/01 10:58:00;;;;;;;10.38;9.48;;;;;;;;;;4378257;32;20189;-63
2021/12/01 11:00:30;;;;;;;10.82;8.65;;;;;;;;;;4378332;32;20189;-63
2021/12/01 11:03:07;;;;;;;9.30;8.50;;;;;;;;;;4378544;32;20089;-63
2021/12/01 11:05:36;;;;;;;8.80;8.00;;;;;;;;;;4378396;32;20201;-63
2021/12/01 11:08:20;;;;;;;9.02;8.13;;;;;;;;;;4378492;32;20173;-64
2021/12/01 11:11:16;;;;;;;7.05;6.35;;;;;;;;;;4378369;32;20121;-64
2021/12/01 11:13:47;;;;;;;7.22;6.53;;;;;;;;;;4375152;32;20477;-62
2021/12/01 11:16:15;;;;;;;7.97;6.75;;;;;;;;;;4376790;32;20117;-62
2021/12/01 11:18:51;;;;;;;7.62;6.93;;;;;;;;;;4375290;32;20185;-63
2021/12/01 11:21:19;;;;;;;8.15;7.43;;;;;;;;;;4376764;32;20086;-63
2021/12/01 11:23:47;;;;;;;7.40;6.70;;;;;;;;;;4376722;32;20075;-63
2021/12/01 11:26:21;;;;;;;7.43;6.75;;;;;;;;;;4376761;32;20325;-64
2021/12/01 11:28:49;;;;;;;8.00;7.20;;;;;;;;;;4376705;32;20190;-63
2021/12/01 11:31:21;;;;;;;7.18;6.47;;;;;;;;;;4377221;32;20638;-64
2021/12/01 11:33:49;;;;;;;7.90;7.20;;;;;;;;;;4377965;32;20121;-64
2021/12/01 11:36:20;;;;;;;7.45;6.75;;;;;;;;;;4378114;32;20456;-64
2021/12/01 11:38:50;;;;;;;7.57;6.87;;;;;;;;;;4378099;32;20190;-64
2021/12/01 11:41:16;;;;;;;7.00;6.30;;;;;;;;;;4377963;32;20105;-63
2021/12/01 11:43:43;;;;;;;7.80;7.10;;;;;;;;;;4378148;32;20085;-64
2021/12/01 11:46:09;;;;;;;8.27;7.47;;;;;;;;;;4377982;32;20761;-63
2021/12/01 11:48:39;;;;;;;9.88;7.53;;;;;;;;;;4378049;32;20189;-64
2021/12/01 11:51:24;;;;;;;8.35;7.55;;;;;;;;;;4377902;32;20128;-64
2021/12/01 11:54:12;;;;;;;8.15;7.35;;;;;;;;;;4377888;32;20129;-64
2021/12/01 11:56:47;;;;;;;8.25;7.45;;;;;;;;;;4377959;32;20114;-63
2021/12/01 11:59:16;;;;;;;7.33;6.63;;;;;;;;;;4377851;32;20501;-64
2021/12/01 12:01:53;;;;;;;7.57;6.87;;;;;;;;;;4377828;32;20109;-64
2021/12/01 12:04:22;;;;;;;8.65;7.75;;;;;;;;;;4389048;32;20113;-64
2021/12/01 12:06:52;;;;;;;7.93;7.22;;;;;;;;;;4378012;32;20109;-63
2021/12/01 12:09:22;;;;;;;8.38;7.57;;;;;;;;;;4378088;32;20117;-64
2021/12/01 12:11:56;;;;;;;7.82;7.12;;;;;;;;;;4378065;32;20124;-64
2021/12/01 12:14:31;;;;;;;7.40;6.75;;;;;;;;;;4377987;32;20110;-64
2021/12/01 12:17:12;;;;;;;7.60;6.87;;;;;;;;;;4376673;32;20109;-63
2021/12/01 12:19:52;;;;;;;8.00;7.30;;;;;;;;;;4377678;32;20092;-63
2021/12/01 12:22:27;;;;;;;8.35;7.55;;;;;;;;;;4380907;32;20124;-64
2021/12/01 12:24:55;;;;;;;8.57;7.78;;;;;;;;;;4379694;32;20506;-63
2021/12/01 12:27:34;;;;;;;9.15;8.35;;;;;;;;;;4375851;32;20685;-63
2021/12/01 12:30:02;;;;;;;8.50;7.72;;;;;;;;;;4377678;32;20464;-63
2021/12/01 12:32:29;;;;;;;8.82;8.00;;;;;;;;;;4377968;32;20117;-63
2021/12/01 12:34:58;;;;;;;10.40;8.88;;;;;;;;;;4375811;32;20101;-63
2021/12/01 12:37:27;;;;;;;9.73;8.75;;;;;;;;;;4377211;32;20608;-62
2021/12/01 12:39:53;;;;;;;10.82;9.13;;;;;;;;;;4377631;32;20440;-63
2021/12/01 12:42:22;;;;;;;9.50;8.60;;;;;;;;;;4376455;32;20098;-63
2021/12/01 12:44:50;;;;;;;9.73;8.57;;;;;;;;;;4375670;32;20501;-63
2021/12/01 12:47:22;;;;;;;8.00;7.20;;;;;;;;;;4377283;32;20109;-63
2021/12/01 12:50:02;;;;;;;9.65;8.15;;;;;;;;;;4375709;32;20101;-62
2021/12/01 12:52:34;;;;;;;8.90;8.00;;;;;;;;;;4380906;32;20094;-62
2021/12/01 12:55:06;;;;;;;8.10;7.30;;;;;;;;;;4391908;32;20198;-63
2021/12/01 12:57:52;;;;;;;8.60;7.70;;;;;;;;;;4390770;32;20487;-64
2021/12/01 13:00:22;;;;;;;8.00;7.20;;;;;;;;;;4392243;32;20200;-64
2021/12/01 13:02:49;;;;;;;8.38;7.15;;;;;;;;;;4392183;32;20093;-64
2021/12/01 13:05:29;;;;;;;7.25;6.53;;;;;;;;;;4391982;32;20154;-63
2021/12/01 13:07:56;;;;;;;6.60;6.00;;;;;;;;;;4392146;32;20113;-63
2021/12/01 13:10:23;;;;;;;6.15;5.55;;;;;;;;;;4392198;32;20104;-61
2021/12/01 13:13:18;;;;;;;5.70;5.20;;;;;;;;;;4392033;32;20105;-62
2021/12/01 13:15:49;;;;;;;5.70;5.20;;;;;;;;;;4392227;32;20098;-62
2021/12/01 13:18:20;;;;;;;6.55;5.95;;;;;;;;;;4391804;32;20197;-63
2021/12/01 13:20:52;;;;;;;6.32;5.72;;;;;;;;;;4392102;32;20117;-63
2021/12/01 13:23:26;;;;;;;6.32;5.72;;;;;;;;;;4389305;32;20106;-62
2021/12/01 13:25:59;;;;;;;6.57;5.90;;;;;;;;;;4377007;32;20182;-63
2021/12/01 13:28:35;;;;;;;6.25;5.65;;;;;;;;;;4377255;32;20255;-63
2021/12/01 13:31:14;;;;;;;6.10;5.60;;;;;;;;;;4376992;32;20129;-63
2021/12/01 13:34:03;;;;;;;6.25;5.65;;;;;;;;;;4376911;32;20102;-63
2021/12/01 13:36:32;;;;;;;6.40;5.80;;;;;;;;;;4377052;32;20152;-63
2021/12/01 13:39:09;;;;;;;5.87;5.30;;;;;;;;;;4376943;32;20196;-63
2021/12/01 13:41:47;;;;;;;5.85;5.35;;;;;;;;;;4376764;32;20097;-63
2021/12/01 13:44:23;;;;;;;6.62;5.12;;;;;;;;;;4376863;32;20429;-63
2021/12/01 13:47:02;;;;;;;5.97;5.37;;;;;;;;;;4375362;32;20110;-63
2021/12/01 13:49:39;;;;;;;5.78;5.28;;;;;;;;;;4376582;32;20090;-63
2021/12/01 13:52:07;;;;;;;5.30;4.80;;;;;;;;;;4376619;32;20113;-63
2021/12/01 13:54:33;;;;;;;5.62;5.10;;;;;;;;;;4376634;32;20097;-63
2021/12/01 13:57:06;;;;;;;6.70;5.18;;;;;;;;;;4379358;32;20094;-63
2021/12/01 13:59:39;;;;;;;6.78;5.18;;;;;;;;;;4378942;32;20175;-63
2021/12/01 14:02:06;;;;;;;5.95;5.43;;;;;;;;;;4378187;32;20129;-63
2021/12/01 14:04:32;;;;;;;4.82;4.32;;;;;;;;;;4377484;32;20113;-64
2021/12/01 14:06:58;;;;;;;5.80;4.45;;;;;;;;;;4377627;32;20210;-64
2021/12/01 14:09:49;;;;;;;4.93;4.43;;;;;;;;;;4375127;32;20194;-64
2021/12/01 14:12:26;;;;;;;4.93;4.43;;;;;;;;;;4375945;32;20109;-62
2021/12/01 14:14:52;;;;;;;4.68;4.10;;;;;;;;;;4377534;32;20102;-62
2021/12/01 14:17:18;;;;;;;5.37;4.50;;;;;;;;;;4377045;32;20534;-62
2021/12/01 14:19:44;;;;;;;4.75;4.25;;;;;;;;;;4377246;32;20086;-62
2021/12/01 14:22:15;;;;;;;5.00;4.50;;;;;;;;;;4378864;32;20094;-66
2021/12/01 14:25:02;;;;;;;5.62;4.20;;;;;;;;;;4378603;32;20097;-66
2021/12/01 14:27:34;;;;;;;4.05;3.35;;;;;;;;;;4378623;32;20120;-68
2021/12/01 14:30:04;;;;;;;4.35;3.70;;;;;;;;;;4378655;32;20441;-68
2021/12/01 14:32:30;;;;;;;5.12;3.80;;;;;;;;;;4378897;32;20214;-68
2021/12/01 14:35:04;;;;;;;5.70;3.58;;;;;;;;;;4378698;32;20160;-68
2021/12/01 14:37:32;;;;;;;4.65;3.67;;;;;;;;;;4377130;32;20519;-68
2021/12/01 14:40:09;;;;;;;4.03;3.62;;;;;;;;;;4378586;32;20590;-68
2021/12/01 14:42:43;;;;;;;4.72;4.12;;;;;;;;;;4376914;32;20155;-68
2021/12/01 14:45:13;;;;;;;5.57;4.40;;;;;;;;;;4378523;32;20112;-66
2021/12/01 14:47:59;;;;;;;4.95;4.45;;;;;;;;;;4378471;32;20672;-67
2021/12/01 14:50:25;;;;;;;4.18;3.78;;;;;;;;;;4378685;32;20214;-68
2021/12/01 14:52:54;;;;;;;4.53;4.12;;;;;;;;;;4378505;32;20218;-68
2021/12/01 14:55:24;;;;;;;4.25;3.85;;;;;;;;;;4378573;32;20113;-68
2021/12/01 14:57:53;;;;;;;4.65;4.25;;;;;;;;;;4378646;32;20525;-67
2021/12/01 15:00:27;;;;;;;5.40;4.90;;;;;;;;;;4378593;32;20151;-68
2021/12/01 15:02:57;;;;;;;5.70;5.20;;;;;;;;;;4378951;32;20141;-67
2021/12/01 15:05:24;;;;;;;6.90;5.20;;;;;;;;;;4376873;32;20109;-67
2021/12/01 15:07:50;;;;;;;6.35;5.75;;;;;;;;;;4377218;32;20206;-67
2021/12/01 15:10:17;;;;;;;6.07;5.43;;;;;;;;;;4378479;32;20125;-67
2021/12/01 15:12:47;;;;;;;6.68;5.37;;;;;;;;;;4378355;32;20126;-68
2021/12/01 15:15:28;;;;;;;5.90;5.30;;;;;;;;;;4378449;32;20113;-67